sensor_id;sensor_type;location;lat;lon;timestamp;temperature;humidity
20827;DHT22;10574;52.508;13.236;2024-02-15T00:01:28;9.10;99.90
20827;DHT22;10574;52.508;13.236;2024-02-15T00:03:56;9.10;99.90
20827;DHT22;10574;52.508;13.236;2024-02-15T00:06:24;9.10;99.90
20827;DHT22;10574;52.508;13.236;2024-02-15T00:08:52;9.10;99.90
20827;DHT22;10574;52.508;13.236;2024-02-15T00:11:19;9.10;99.90
20827;DHT22;10574;52.508;13.236;2024-02-15T00:13:48;9.10;99.90
20827;DHT22;10574;52.508;13.236;2024-02-15T00:16:16;9.10;99.90
20827;DHT22;10574;52.508;13.236;2024-02-15T00:18:43;9.10;99.90
20827;DHT22;10574;52.508;13.236;2024-02-15T00:21:11;9.20;99.90
20827;DHT22;10574;52.508;13.236;2024-02-15T00:23:43;9.20;99.90
20827;DHT22;10574;52.508;13.236;2024-02-15T00:26:11;9.10;99.90
20827;DHT22;10574;52.508;13.236;2024-02-15T00:28:40;9.10;99.90
20827;DHT22;10574;52.508;13.236;2024-02-15T00:31:08;9.20;99.90
20827;DHT22;10574;52.508;13.236;2024-02-15T00:33:35;9.20;99.90
20827;DHT22;10574;52.508;13.236;2024-02-15T00:36:04;9.20;99.90
20827;DHT22;10574;52.508;13.236;2024-02-15T00:38:33;9.20;99.90
20827;DHT22;10574;52.508;13.236;2024-02-15T00:41:01;9.20;99.90
20827;DHT22;10574;52.508;13.236;2024-02-15T00:43:29;9.20;99.90
20827;DHT22;10574;52.508;13.236;2024-02-15T00:45:57;9.20;99.90
20827;DHT22;10574;52.508;13.236;2024-02-15T00:48:25;9.20;99.90
20827;DHT22;10574;52.508;13.236;2024-02-15T00:50:54;9.20;99.90
20827;DHT22;10574;52.508;13.236;2024-02-15T00:53:22;9.20;99.90
20827;DHT22;10574;52.508;13.236;2024-02-15T00:55:49;9.20;99.90
20827;DHT22;10574;52.508;13.236;2024-02-15T00:58:18;9.20;99.90
20827;DHT22;10574;52.508;13.236;2024-02-15T01:00:48;9.20;99.90
20827;DHT22;10574;52.508;13.236;2024-02-15T01:03:16;9.20;99.90
20827;DHT22;10574;52.508;13.236;2024-02-15T01:05:44;9.20;99.90
20827;DHT22;10574;52.508;13.236;2024-02-15T01:08:11;9.20;99.90
20827;DHT22;10574;52.508;13.236;2024-02-15T01:10:39;9.20;99.90
20827;DHT22;10574;52.508;13.236;2024-02-15T01:13:07;9.20;99.90
20827;DHT22;10574;52.508;13.236;2024-02-15T01:15:36;9.20;99.90
20827;DHT22;10574;52.508;13.236;2024-02-15T01:18:05;9.30;99.90
20827;DHT22;10574;52.508;13.236;2024-02-15T01:20:33;9.30;99.90
20827;DHT22;10574;52.508;13.236;2024-02-15T01:23:00;9.20;99.90
20827;DHT22;10574;52.508;13.236;2024-02-15T01:25:28;9.20;99.90
20827;DHT22;10574;52.508;13.236;2024-02-15T01:27:56;9.20;99.90
20827;DHT22;10574;52.508;13.236;2024-02-15T01:30:24;9.20;99.90
20827;DHT22;10574;52.508;13.236;2024-02-15T01:32:52;9.20;99.90
20827;DHT22;10574;52.508;13.236;2024-02-15T01:35:19;9.30;99.90
20827;DHT22;10574;52.508;13.236;2024-02-15T01:37:47;9.30;99.90
20827;DHT22;10574;52.508;13.236;2024-02-15T01:40:16;9.30;99.90
20827;DHT22;10574;52.508;13.236;2024-02-15T01:42:47;9.30;99.90
20827;DHT22;10574;52.508;13.236;2024-02-15T01:45:17;9.30;99.90
20827;DHT22;10574;52.508;13.236;2024-02-15T01:47:46;9.30;99.90
20827;DHT22;10574;52.508;13.236;2024-02-15T01:50:14;9.40;99.90
20827;DHT22;10574;52.508;13.236;2024-02-15T01:52:44;9.30;99.90
20827;DHT22;10574;52.508;13.236;2024-02-15T01:55:14;9.30;99.90
20827;DHT22;10574;52.508;13.236;2024-02-15T01:57:46;9.30;99.90
20827;DHT22;10574;52.508;13.236;2024-02-15T02:00:17;9.30;99.90
20827;DHT22;10574;52.508;13.236;2024-02-15T02:02:46;9.30;99.90
20827;DHT22;10574;52.508;13.236;2024-02-15T02:05:14;9.30;99.90
20827;DHT22;10574;52.508;13.236;2024-02-15T02:07:42;9.30;99.90
20827;DHT22;10574;52.508;13.236;2024-02-15T02:10:10;9.30;99.90
20827;DHT22;10574;52.508;13.236;2024-02-15T02:12:42;9.30;99.90
20827;DHT22;10574;52.508;13.236;2024-02-15T02:15:09;9.30;99.90
20827;DHT22;10574;52.508;13.236;2024-02-15T02:17:37;9.30;99.90
20827;DHT22;10574;52.508;13.236;2024-02-15T02:20:08;9.30;99.90
20827;DHT22;10574;52.508;13.236;2024-02-15T02:22:38;9.30;99.90
20827;DHT22;10574;52.508;13.236;2024-02-15T02:25:08;9.40;99.90
20827;DHT22;10574;52.508;13.236;2024-02-15T02:27:37;9.40;99.90
20827;DHT22;10574;52.508;13.236;2024-02-15T02:30:05;9.40;99.90
20827;DHT22;10574;52.508;13.236;2024-02-15T02:32:35;9.30;99.90
20827;DHT22;10574;52.508;13.236;2024-02-15T02:35:05;9.30;99.90
20827;DHT22;10574;52.508;13.236;2024-02-15T02:37:33;9.30;99.90
20827;DHT22;10574;52.508;13.236;2024-02-15T02:40:08;9.40;99.90
20827;DHT22;10574;52.508;13.236;2024-02-15T02:42:54;9.40;99.90
20827;DHT22;10574;52.508;13.236;2024-02-15T02:45:28;9.40;99.90
20827;DHT22;10574;52.508;13.236;2024-02-15T02:47:56;9.30;99.90
20827;DHT22;10574;52.508;13.236;2024-02-15T02:50:24;9.30;99.90
20827;DHT22;10574;52.508;13.236;2024-02-15T02:52:51;9.30;99.90
20827;DHT22;10574;52.508;13.236;2024-02-15T02:55:19;9.30;99.90
20827;DHT22;10574;52.508;13.236;2024-02-15T02:57:47;9.30;99.90
20827;DHT22;10574;52.508;13.236;2024-02-15T03:00:16;9.30;99.90
20827;DHT22;10574;52.508;13.236;2024-02-15T03:02:47;9.40;99.90
20827;DHT22;10574;52.508;13.236;2024-02-15T03:05:15;9.30;99.90
20827;DHT22;10574;52.508;13.236;2024-02-15T03:07:43;9.30;99.90
20827;DHT22;10574;52.508;13.236;2024-02-15T03:10:10;9.40;99.90
20827;DHT22;10574;52.508;13.236;2024-02-15T03:12:40;9.40;99.90
20827;DHT22;10574;52.508;13.236;2024-02-15T03:15:10;9.30;99.90
20827;DHT22;10574;52.508;13.236;2024-02-15T03:17:41;9.40;99.90
20827;DHT22;10574;52.508;13.236;2024-02-15T03:20:10;9.40;99.90
20827;DHT22;10574;52.508;13.236;2024-02-15T03:22:40;9.40;99.90
20827;DHT22;10574;52.508;13.236;2024-02-15T03:25:08;9.40;99.90
20827;DHT22;10574;52.508;13.236;2024-02-15T03:27:36;9.40;99.90
20827;DHT22;10574;52.508;13.236;2024-02-15T03:30:07;9.40;99.90
20827;DHT22;10574;52.508;13.236;2024-02-15T03:32:35;9.40;99.90
20827;DHT22;10574;52.508;13.236;2024-02-15T03:35:03;9.40;99.90
20827;DHT22;10574;52.508;13.236;2024-02-15T03:37:31;9.40;99.90
20827;DHT22;10574;52.508;13.236;2024-02-15T03:40:01;9.50;99.90
20827;DHT22;10574;52.508;13.236;2024-02-15T03:42:30;9.50;99.90
20827;DHT22;10574;52.508;13.236;2024-02-15T03:44:57;9.50;99.90
20827;DHT22;10574;52.508;13.236;2024-02-15T03:47:25;9.50;99.90
20827;DHT22;10574;52.508;13.236;2024-02-15T03:49:55;9.50;99.90
20827;DHT22;10574;52.508;13.236;2024-02-15T03:52:23;9.60;99.90
20827;DHT22;10574;52.508;13.236;2024-02-15T03:54:51;9.50;99.90
20827;DHT22;10574;52.508;13.236;2024-02-15T03:57:19;9.50;99.90
20827;DHT22;10574;52.508;13.236;2024-02-15T03:59:47;9.50;99.90
20827;DHT22;10574;52.508;13.236;2024-02-15T04:02:20;9.60;99.90
20827;DHT22;10574;52.508;13.236;2024-02-15T04:04:50;9.50;99.90
20827;DHT22;10574;52.508;13.236;2024-02-15T04:07:19;9.50;99.90
20827;DHT22;10574;52.508;13.236;2024-02-15T04:09:48;9.50;99.90
20827;DHT22;10574;52.508;13.236;2024-02-15T04:12:16;9.60;99.90
20827;DHT22;10574;52.508;13.236;2024-02-15T04:14:44;9.60;99.90
20827;DHT22;10574;52.508;13.236;2024-02-15T04:17:12;9.60;99.90
20827;DHT22;10574;52.508;13.236;2024-02-15T04:19:45;9.60;99.90
20827;DHT22;10574;52.508;13.236;2024-02-15T04:22:13;9.60;99.90
20827;DHT22;10574;52.508;13.236;2024-02-15T04:24:43;9.60;99.90
20827;DHT22;10574;52.508;13.236;2024-02-15T04:27:12;9.60;99.90
20827;DHT22;10574;52.508;13.236;2024-02-15T04:29:41;9.60;99.90
20827;DHT22;10574;52.508;13.236;2024-02-15T04:32:11;9.60;99.90
20827;DHT22;10574;52.508;13.236;2024-02-15T04:34:40;9.60;99.90
20827;DHT22;10574;52.508;13.236;2024-02-15T04:37:08;9.60;99.90
20827;DHT22;10574;52.508;13.236;2024-02-15T04:39:36;9.60;99.90
20827;DHT22;10574;52.508;13.236;2024-02-15T04:42:05;9.60;99.90
20827;DHT22;10574;52.508;13.236;2024-02-15T04:44:34;9.60;99.90
20827;DHT22;10574;52.508;13.236;2024-02-15T04:47:02;9.60;99.90
20827;DHT22;10574;52.508;13.236;2024-02-15T04:49:32;9.60;99.90
20827;DHT22;10574;52.508;13.236;2024-02-15T04:52:00;9.60;99.90
20827;DHT22;10574;52.508;13.236;2024-02-15T04:54:30;9.60;99.90
20827;DHT22;10574;52.508;13.236;2024-02-15T04:56:59;9.60;99.90
20827;DHT22;10574;52.508;13.236;2024-02-15T04:59:27;9.60;99.90
20827;DHT22;10574;52.508;13.236;2024-02-15T05:01:55;9.60;99.90
20827;DHT22;10574;52.508;13.236;2024-02-15T05:04:23;9.70;99.90
20827;DHT22;10574;52.508;13.236;2024-02-15T05:06:51;9.70;99.90
20827;DHT22;10574;52.508;13.236;2024-02-15T05:09:19;9.60;99.90
20827;DHT22;10574;52.508;13.236;2024-02-15T05:11:48;9.70;99.90
20827;DHT22;10574;52.508;13.236;2024-02-15T05:14:16;9.70;99.90
20827;DHT22;10574;52.508;13.236;2024-02-15T05:16:47;9.70;99.90
20827;DHT22;10574;52.508;13.236;2024-02-15T05:19:16;9.70;99.90
20827;DHT22;10574;52.508;13.236;2024-02-15T05:21:45;9.70;99.90
20827;DHT22;10574;52.508;13.236;2024-02-15T05:24:14;9.70;99.90
20827;DHT22;10574;52.508;13.236;2024-02-15T05:26:45;9.70;99.90
20827;DHT22;10574;52.508;13.236;2024-02-15T05:29:17;9.70;99.90
20827;DHT22;10574;52.508;13.236;2024-02-15T05:31:47;9.70;99.90
20827;DHT22;10574;52.508;13.236;2024-02-15T05:34:16;9.70;99.90
20827;DHT22;10574;52.508;13.236;2024-02-15T05:36:45;9.70;99.90
20827;DHT22;10574;52.508;13.236;2024-02-15T05:39:14;9.70;99.90
20827;DHT22;10574;52.508;13.236;2024-02-15T05:41:42;9.70;99.90
20827;DHT22;10574;52.508;13.236;2024-02-15T05:44:10;9.70;99.90
20827;DHT22;10574;52.508;13.236;2024-02-15T05:46:38;9.70;99.90
20827;DHT22;10574;52.508;13.236;2024-02-15T05:49:06;9.70;99.90
20827;DHT22;10574;52.508;13.236;2024-02-15T05:51:36;9.70;99.90
20827;DHT22;10574;52.508;13.236;2024-02-15T05:54:03;9.70;99.90
20827;DHT22;10574;52.508;13.236;2024-02-15T05:56:31;9.80;99.90
20827;DHT22;10574;52.508;13.236;2024-02-15T05:58:59;9.80;99.90
20827;DHT22;10574;52.508;13.236;2024-02-15T06:01:28;9.80;99.90
20827;DHT22;10574;52.508;13.236;2024-02-15T06:03:56;9.80;99.90
20827;DHT22;10574;52.508;13.236;2024-02-15T06:06:24;9.80;99.90
20827;DHT22;10574;52.508;13.236;2024-02-15T06:08:53;9.80;99.90
20827;DHT22;10574;52.508;13.236;2024-02-15T06:11:22;9.80;99.90
20827;DHT22;10574;52.508;13.236;2024-02-15T06:13:50;9.80;99.90
20827;DHT22;10574;52.508;13.236;2024-02-15T06:16:18;9.80;99.90
20827;DHT22;10574;52.508;13.236;2024-02-15T06:18:47;9.80;99.90
20827;DHT22;10574;52.508;13.236;2024-02-15T06:21:18;9.80;99.90
20827;DHT22;10574;52.508;13.236;2024-02-15T06:23:47;9.90;99.90
20827;DHT22;10574;52.508;13.236;2024-02-15T06:26:16;9.90;99.90
20827;DHT22;10574;52.508;13.236;2024-02-15T06:28:44;9.90;99.90
20827;DHT22;10574;52.508;13.236;2024-02-15T06:31:31;9.90;99.90
20827;DHT22;10574;52.508;13.236;2024-02-15T06:34:17;9.90;99.90
20827;DHT22;10574;52.508;13.236;2024-02-15T06:37:03;9.90;99.90
20827;DHT22;10574;52.508;13.236;2024-02-15T06:39:49;9.90;99.90
20827;DHT22;10574;52.508;13.236;2024-02-15T06:42:18;9.90;99.90
20827;DHT22;10574;52.508;13.236;2024-02-15T06:44:47;9.90;99.90
20827;DHT22;10574;52.508;13.236;2024-02-15T06:47:15;9.90;99.90
20827;DHT22;10574;52.508;13.236;2024-02-15T06:49:46;9.90;99.90
20827;DHT22;10574;52.508;13.236;2024-02-15T06:52:15;9.90;99.90
20827;DHT22;10574;52.508;13.236;2024-02-15T06:54:44;9.90;99.90
20827;DHT22;10574;52.508;13.236;2024-02-15T06:57:12;10.00;99.90
20827;DHT22;10574;52.508;13.236;2024-02-15T06:59:41;10.00;99.90
20827;DHT22;10574;52.508;13.236;2024-02-15T07:02:09;10.00;99.90
20827;DHT22;10574;52.508;13.236;2024-02-15T07:04:36;10.00;99.90
20827;DHT22;10574;52.508;13.236;2024-02-15T07:07:04;10.00;99.90
20827;DHT22;10574;52.508;13.236;2024-02-15T07:09:32;10.10;99.90
20827;DHT22;10574;52.508;13.236;2024-02-15T07:12:00;10.10;99.90
20827;DHT22;10574;52.508;13.236;2024-02-15T07:14:27;10.10;99.90
20827;DHT22;10574;52.508;13.236;2024-02-15T07:16:56;10.10;99.90
20827;DHT22;10574;52.508;13.236;2024-02-15T07:19:25;10.10;99.90
20827;DHT22;10574;52.508;13.236;2024-02-15T07:21:53;10.20;99.90
20827;DHT22;10574;52.508;13.236;2024-02-15T07:24:23;10.20;99.90
20827;DHT22;10574;52.508;13.236;2024-02-15T07:26:52;10.20;99.90
20827;DHT22;10574;52.508;13.236;2024-02-15T07:29:22;10.20;99.90
20827;DHT22;10574;52.508;13.236;2024-02-15T07:31:51;10.20;99.90
20827;DHT22;10574;52.508;13.236;2024-02-15T07:34:18;10.20;99.90
20827;DHT22;10574;52.508;13.236;2024-02-15T07:36:46;10.20;99.90
20827;DHT22;10574;52.508;13.236;2024-02-15T07:39:14;10.20;99.90
20827;DHT22;10574;52.508;13.236;2024-02-15T07:41:43;10.30;99.90
20827;DHT22;10574;52.508;13.236;2024-02-15T07:44:11;10.30;99.90
20827;DHT22;10574;52.508;13.236;2024-02-15T07:46:39;10.30;99.90
20827;DHT22;10574;52.508;13.236;2024-02-15T07:49:07;10.30;99.90
20827;DHT22;10574;52.508;13.236;2024-02-15T07:51:35;10.30;99.90
20827;DHT22;10574;52.508;13.236;2024-02-15T07:54:03;10.40;99.90
20827;DHT22;10574;52.508;13.236;2024-02-15T07:56:31;10.40;99.90
20827;DHT22;10574;52.508;13.236;2024-02-15T07:58:59;10.40;99.90
20827;DHT22;10574;52.508;13.236;2024-02-15T08:01:26;10.50;99.90
20827;DHT22;10574;52.508;13.236;2024-02-15T08:03:56;10.50;99.90
20827;DHT22;10574;52.508;13.236;2024-02-15T08:06:24;10.50;99.90
20827;DHT22;10574;52.508;13.236;2024-02-15T08:08:53;10.50;99.90
20827;DHT22;10574;52.508;13.236;2024-02-15T08:11:21;10.60;99.90
20827;DHT22;10574;52.508;13.236;2024-02-15T08:13:51;10.50;99.90
20827;DHT22;10574;52.508;13.236;2024-02-15T08:16:22;10.50;99.90
20827;DHT22;10574;52.508;13.236;2024-02-15T08:18:50;10.60;99.90
20827;DHT22;10574;52.508;13.236;2024-02-15T08:21:31;10.60;99.90
20827;DHT22;10574;52.508;13.236;2024-02-15T08:24:06;10.70;99.90
20827;DHT22;10574;52.508;13.236;2024-02-15T08:26:39;10.70;99.90
20827;DHT22;10574;52.508;13.236;2024-02-15T08:29:09;10.70;99.90
20827;DHT22;10574;52.508;13.236;2024-02-15T08:31:36;10.70;99.90
20827;DHT22;10574;52.508;13.236;2024-02-15T08:34:04;10.70;99.90
20827;DHT22;10574;52.508;13.236;2024-02-15T08:36:37;10.60;99.90
20827;DHT22;10574;52.508;13.236;2024-02-15T08:39:06;10.70;99.90
20827;DHT22;10574;52.508;13.236;2024-02-15T08:41:35;10.70;99.90
20827;DHT22;10574;52.508;13.236;2024-02-15T08:44:04;10.70;99.90
20827;DHT22;10574;52.508;13.236;2024-02-15T08:46:33;10.70;99.90
20827;DHT22;10574;52.508;13.236;2024-02-15T08:49:02;10.80;99.90
20827;DHT22;10574;52.508;13.236;2024-02-15T08:51:30;10.80;99.90
20827;DHT22;10574;52.508;13.236;2024-02-15T08:53:59;10.90;99.90
20827;DHT22;10574;52.508;13.236;2024-02-15T08:56:30;10.90;99.90
20827;DHT22;10574;52.508;13.236;2024-02-15T08:58:59;11.00;99.90
20827;DHT22;10574;52.508;13.236;2024-02-15T09:01:27;11.00;99.90
20827;DHT22;10574;52.508;13.236;2024-02-15T09:03:55;11.00;99.90
20827;DHT22;10574;52.508;13.236;2024-02-15T09:06:23;11.00;99.90
20827;DHT22;10574;52.508;13.236;2024-02-15T09:08:52;11.00;99.90
20827;DHT22;10574;52.508;13.236;2024-02-15T09:11:20;11.10;99.90
20827;DHT22;10574;52.508;13.236;2024-02-15T09:13:49;11.10;99.90
20827;DHT22;10574;52.508;13.236;2024-02-15T09:16:18;11.10;99.90
20827;DHT22;10574;52.508;13.236;2024-02-15T09:18:48;11.10;99.90
20827;DHT22;10574;52.508;13.236;2024-02-15T09:21:18;11.20;99.90
20827;DHT22;10574;52.508;13.236;2024-02-15T09:23:45;11.20;99.90
20827;DHT22;10574;52.508;13.236;2024-02-15T09:26:14;11.20;99.90
20827;DHT22;10574;52.508;13.236;2024-02-15T09:28:41;11.20;99.90
20827;DHT22;10574;52.508;13.236;2024-02-15T09:31:16;11.30;99.90
20827;DHT22;10574;52.508;13.236;2024-02-15T09:33:40;11.30;99.90
20827;DHT22;10574;52.508;13.236;2024-02-15T09:36:08;11.30;99.90
20827;DHT22;10574;52.508;13.236;2024-02-15T09:38:36;11.40;99.90
20827;DHT22;10574;52.508;13.236;2024-02-15T09:41:05;11.40;99.90
20827;DHT22;10574;52.508;13.236;2024-02-15T09:43:35;11.40;99.90
20827;DHT22;10574;52.508;13.236;2024-02-15T09:46:03;11.40;99.90
20827;DHT22;10574;52.508;13.236;2024-02-15T09:48:32;11.50;99.90
20827;DHT22;10574;52.508;13.236;2024-02-15T09:51:02;11.50;99.90
20827;DHT22;10574;52.508;13.236;2024-02-15T09:53:31;11.60;99.90
20827;DHT22;10574;52.508;13.236;2024-02-15T09:56:00;11.60;99.90
20827;DHT22;10574;52.508;13.236;2024-02-15T09:58:30;11.70;99.90
20827;DHT22;10574;52.508;13.236;2024-02-15T10:01:02;11.80;99.90
20827;DHT22;10574;52.508;13.236;2024-02-15T10:03:33;11.80;99.90
20827;DHT22;10574;52.508;13.236;2024-02-15T10:06:02;11.80;99.90
20827;DHT22;10574;52.508;13.236;2024-02-15T10:08:30;11.80;99.90
20827;DHT22;10574;52.508;13.236;2024-02-15T10:11:07;11.90;99.90
20827;DHT22;10574;52.508;13.236;2024-02-15T10:13:36;12.00;99.90
20827;DHT22;10574;52.508;13.236;2024-02-15T10:16:19;12.00;99.90
20827;DHT22;10574;52.508;13.236;2024-02-15T10:18:49;12.00;99.90
20827;DHT22;10574;52.508;13.236;2024-02-15T10:21:26;12.20;99.90
20827;DHT22;10574;52.508;13.236;2024-02-15T10:24:10;12.30;99.90
20827;DHT22;10574;52.508;13.236;2024-02-15T10:26:37;12.30;99.90
20827;DHT22;10574;52.508;13.236;2024-02-15T10:29:11;12.40;99.90
20827;DHT22;10574;52.508;13.236;2024-02-15T10:31:36;12.30;99.90
20827;DHT22;10574;52.508;13.236;2024-02-15T10:34:05;12.40;99.90
20827;DHT22;10574;52.508;13.236;2024-02-15T10:36:34;12.30;99.90
20827;DHT22;10574;52.508;13.236;2024-02-15T10:39:17;12.40;99.90
20827;DHT22;10574;52.508;13.236;2024-02-15T10:41:48;12.40;99.90
20827;DHT22;10574;52.508;13.236;2024-02-15T10:44:18;12.40;99.90
20827;DHT22;10574;52.508;13.236;2024-02-15T10:46:51;12.50;99.90
20827;DHT22;10574;52.508;13.236;2024-02-15T10:49:20;12.50;99.90
20827;DHT22;10574;52.508;13.236;2024-02-15T10:51:59;12.60;99.90
20827;DHT22;10574;52.508;13.236;2024-02-15T10:54:52;12.60;99.90
20827;DHT22;10574;52.508;13.236;2024-02-15T10:57:22;12.70;99.90
20827;DHT22;10574;52.508;13.236;2024-02-15T10:59:58;12.70;99.90
20827;DHT22;10574;52.508;13.236;2024-02-15T11:02:33;12.80;99.90
20827;DHT22;10574;52.508;13.236;2024-02-15T11:05:06;12.80;99.90
20827;DHT22;10574;52.508;13.236;2024-02-15T11:07:38;12.70;99.90
20827;DHT22;10574;52.508;13.236;2024-02-15T11:10:08;12.80;99.90
20827;DHT22;10574;52.508;13.236;2024-02-15T11:12:39;12.80;99.90
20827;DHT22;10574;52.508;13.236;2024-02-15T11:15:09;12.80;99.90
20827;DHT22;10574;52.508;13.236;2024-02-15T11:20:53;12.80;99.90
20827;DHT22;10574;52.508;13.236;2024-02-15T11:22:44;12.90;99.90
20827;DHT22;10574;52.508;13.236;2024-02-15T11:25:15;13.00;99.90
20827;DHT22;10574;52.508;13.236;2024-02-15T11:27:44;12.80;99.90
20827;DHT22;10574;52.508;13.236;2024-02-15T11:30:14;12.90;99.90
20827;DHT22;10574;52.508;13.236;2024-02-15T11:32:46;13.00;99.90
20827;DHT22;10574;52.508;13.236;2024-02-15T11:35:16;13.10;99.90
20827;DHT22;10574;52.508;13.236;2024-02-15T11:37:52;13.10;99.90
20827;DHT22;10574;52.508;13.236;2024-02-15T11:40:25;13.00;99.90
20827;DHT22;10574;52.508;13.236;2024-02-15T11:42:55;13.00;99.90
20827;DHT22;10574;52.508;13.236;2024-02-15T11:45:24;13.10;99.90
20827;DHT22;10574;52.508;13.236;2024-02-15T11:47:53;13.00;99.90
20827;DHT22;10574;52.508;13.236;2024-02-15T11:50:22;13.00;99.90
20827;DHT22;10574;52.508;13.236;2024-02-15T11:52:52;13.10;99.90
20827;DHT22;10574;52.508;13.236;2024-02-15T11:55:21;13.00;99.90
20827;DHT22;10574;52.508;13.236;2024-02-15T11:58:00;13.00;99.90
20827;DHT22;10574;52.508;13.236;2024-02-15T12:00:30;12.90;99.90
20827;DHT22;10574;52.508;13.236;2024-02-15T12:03:18;12.90;99.90
20827;DHT22;10574;52.508;13.236;2024-02-15T12:06:04;12.90;99.90
20827;DHT22;10574;52.508;13.236;2024-02-15T12:08:52;12.90;99.90
20827;DHT22;10574;52.508;13.236;2024-02-15T12:11:39;12.90;99.90
20827;DHT22;10574;52.508;13.236;2024-02-15T12:14:25;12.90;99.90
20827;DHT22;10574;52.508;13.236;2024-02-15T12:17:13;12.90;99.90
20827;DHT22;10574;52.508;13.236;2024-02-15T12:20:03;12.90;99.90
20827;DHT22;10574;52.508;13.236;2024-02-15T12:22:39;12.80;99.90
20827;DHT22;10574;52.508;13.236;2024-02-15T12:25:08;12.90;99.90
20827;DHT22;10574;52.508;13.236;2024-02-15T12:27:41;12.90;99.90
20827;DHT22;10574;52.508;13.236;2024-02-15T12:30:16;12.90;99.90
20827;DHT22;10574;52.508;13.236;2024-02-15T12:32:49;12.90;99.90
20827;DHT22;10574;52.508;13.236;2024-02-15T12:35:21;13.00;99.90
20827;DHT22;10574;52.508;13.236;2024-02-15T12:38:01;13.00;99.90
20827;DHT22;10574;52.508;13.236;2024-02-15T12:40:32;13.00;99.90
20827;DHT22;10574;52.508;13.236;2024-02-15T12:43:00;13.00;99.90
20827;DHT22;10574;52.508;13.236;2024-02-15T12:45:28;13.10;99.90
20827;DHT22;10574;52.508;13.236;2024-02-15T12:47:56;13.20;99.90
20827;DHT22;10574;52.508;13.236;2024-02-15T12:50:29;13.30;99.90
20827;DHT22;10574;52.508;13.236;2024-02-15T12:52:57;13.30;99.90
20827;DHT22;10574;52.508;13.236;2024-02-15T12:55:36;13.30;99.90
20827;DHT22;10574;52.508;13.236;2024-02-15T12:58:19;13.40;99.90
20827;DHT22;10574;52.508;13.236;2024-02-15T13:00:41;13.40;99.90
20827;DHT22;10574;52.508;13.236;2024-02-15T13:03:09;13.50;99.90
20827;DHT22;10574;52.508;13.236;2024-02-15T13:05:38;13.50;99.90
20827;DHT22;10574;52.508;13.236;2024-02-15T13:08:06;13.50;99.90
20827;DHT22;10574;52.508;13.236;2024-02-15T13:10:36;13.50;99.90
20827;DHT22;10574;52.508;13.236;2024-02-15T13:13:05;13.50;99.90
20827;DHT22;10574;52.508;13.236;2024-02-15T13:15:33;13.50;99.90
20827;DHT22;10574;52.508;13.236;2024-02-15T13:18:03;13.50;99.90
20827;DHT22;10574;52.508;13.236;2024-02-15T13:20:35;13.60;99.90
20827;DHT22;10574;52.508;13.236;2024-02-15T13:23:06;13.60;99.90
20827;DHT22;10574;52.508;13.236;2024-02-15T13:25:38;13.70;99.90
20827;DHT22;10574;52.508;13.236;2024-02-15T13:28:09;13.80;99.90
20827;DHT22;10574;52.508;13.236;2024-02-15T13:30:37;13.80;99.90
20827;DHT22;10574;52.508;13.236;2024-02-15T13:33:05;13.70;99.90
20827;DHT22;10574;52.508;13.236;2024-02-15T13:35:33;13.60;99.90
20827;DHT22;10574;52.508;13.236;2024-02-15T13:38:01;13.70;99.90
20827;DHT22;10574;52.508;13.236;2024-02-15T13:40:29;13.70;99.90
20827;DHT22;10574;52.508;13.236;2024-02-15T13:42:59;13.80;99.90
20827;DHT22;10574;52.508;13.236;2024-02-15T13:45:39;13.80;99.90
20827;DHT22;10574;52.508;13.236;2024-02-15T13:48:08;13.90;99.90
20827;DHT22;10574;52.508;13.236;2024-02-15T13:50:37;14.00;99.90
20827;DHT22;10574;52.508;13.236;2024-02-15T13:53:05;14.00;99.90
20827;DHT22;10574;52.508;13.236;2024-02-15T13:55:33;14.00;99.90
20827;DHT22;10574;52.508;13.236;2024-02-15T13:58:02;14.10;99.90
20827;DHT22;10574;52.508;13.236;2024-02-15T14:00:30;14.10;99.90
20827;DHT22;10574;52.508;13.236;2024-02-15T14:03:01;14.10;99.90
20827;DHT22;10574;52.508;13.236;2024-02-15T14:05:30;14.00;99.90
20827;DHT22;10574;52.508;13.236;2024-02-15T14:08:01;14.00;99.90
20827;DHT22;10574;52.508;13.236;2024-02-15T14:10:31;13.90;99.90
20827;DHT22;10574;52.508;13.236;2024-02-15T14:13:00;13.90;99.90
20827;DHT22;10574;52.508;13.236;2024-02-15T14:15:33;14.00;99.90
20827;DHT22;10574;52.508;13.236;2024-02-15T14:18:06;13.90;99.90
20827;DHT22;10574;52.508;13.236;2024-02-15T14:20:36;13.90;99.90
20827;DHT22;10574;52.508;13.236;2024-02-15T14:23:04;13.80;99.90
20827;DHT22;10574;52.508;13.236;2024-02-15T14:25:36;13.80;99.90
20827;DHT22;10574;52.508;13.236;2024-02-15T14:28:04;13.70;99.90
20827;DHT22;10574;52.508;13.236;2024-02-15T14:30:36;13.70;99.90
20827;DHT22;10574;52.508;13.236;2024-02-15T14:33:21;13.60;99.90
20827;DHT22;10574;52.508;13.236;2024-02-15T14:35:49;13.70;99.90
20827;DHT22;10574;52.508;13.236;2024-02-15T14:38:19;13.70;99.90
20827;DHT22;10574;52.508;13.236;2024-02-15T14:40:49;13.50;99.90
20827;DHT22;10574;52.508;13.236;2024-02-15T14:43:24;13.60;99.90
20827;DHT22;10574;52.508;13.236;2024-02-15T14:45:53;13.50;99.90
20827;DHT22;10574;52.508;13.236;2024-02-15T14:48:23;13.40;99.90
20827;DHT22;10574;52.508;13.236;2024-02-15T14:50:50;13.50;99.90
20827;DHT22;10574;52.508;13.236;2024-02-15T14:53:19;13.40;99.90
20827;DHT22;10574;52.508;13.236;2024-02-15T14:55:49;13.40;99.90
20827;DHT22;10574;52.508;13.236;2024-02-15T14:58:19;13.40;99.90
20827;DHT22;10574;52.508;13.236;2024-02-15T15:00:48;13.40;99.90
20827;DHT22;10574;52.508;13.236;2024-02-15T15:03:16;13.30;99.90
20827;DHT22;10574;52.508;13.236;2024-02-15T15:05:44;13.30;99.90
20827;DHT22;10574;52.508;13.236;2024-02-15T15:08:30;13.30;99.90
20827;DHT22;10574;52.508;13.236;2024-02-15T15:11:16;13.30;99.90
20827;DHT22;10574;52.508;13.236;2024-02-15T15:14:01;13.30;99.90
20827;DHT22;10574;52.508;13.236;2024-02-15T15:16:32;13.20;99.90
20827;DHT22;10574;52.508;13.236;2024-02-15T15:19:04;13.20;99.90
20827;DHT22;10574;52.508;13.236;2024-02-15T15:21:33;13.20;99.90
20827;DHT22;10574;52.508;13.236;2024-02-15T15:24:00;13.20;99.90
20827;DHT22;10574;52.508;13.236;2024-02-15T15:26:28;13.10;99.90
20827;DHT22;10574;52.508;13.236;2024-02-15T15:28:57;13.10;99.90
20827;DHT22;10574;52.508;13.236;2024-02-15T15:31:25;13.10;99.90
20827;DHT22;10574;52.508;13.236;2024-02-15T15:33:53;13.10;99.90
20827;DHT22;10574;52.508;13.236;2024-02-15T15:36:22;13.10;99.90
20827;DHT22;10574;52.508;13.236;2024-02-15T15:38:49;13.10;99.90
20827;DHT22;10574;52.508;13.236;2024-02-15T15:41:17;13.10;99.90
20827;DHT22;10574;52.508;13.236;2024-02-15T15:43:45;13.10;99.90